Time;durP1;ratioP1;P1;durP2;ratioP2;P2;SDS_P1;SDS_P2;PMS_P1;PMS_P2;Temp;Humidity;BMP_temperature;BMP_pressure;BME280_temperature;BME280_humidity;BME280_pressure;Samples;Min_cycle;Max_cycle;Signal;HPM_P1;HPM_P2
2024/02/06 00:00:21;;;;;;;9.32;2.75;;;;;;;12.94;28.68;94274.75;5026389;28;20050;-80
2024/02/06 00:02:47;;;;;;;6.30;2.60;;;;;;;12.88;28.60;94282.16;5026239;28;20030;-80
2024/02/06 00:05:12;;;;;;;5.45;2.60;;;;;;;12.88;28.98;94287.50;5026219;28;20080;-80
2024/02/06 00:07:38;;;;;;;7.63;2.42;;;;;;;12.83;29.33;94287.66;5025976;28;20119;-80
2024/02/06 00:10:04;;;;;;;6.47;2.05;;;;;;;12.76;28.95;94306.06;5025938;28;20030;-80
2024/02/06 00:12:29;;;;;;;10.55;2.25;;;;;;;12.80;28.71;94280.25;5026435;28;20026;-80
2024/02/06 00:14:55;;;;;;;9.52;2.63;;;;;;;12.80;28.48;94288.28;5026151;28;20030;-80
2024/02/06 00:17:21;;;;;;;5.53;2.03;;;;;;;12.77;28.43;94286.25;5026060;28;20037;-81
2024/02/06 00:19:46;;;;;;;4.90;1.77;;;;;;;12.76;28.18;94274.78;5026008;28;20072;-81
2024/02/06 00:22:11;;;;;;;4.80;2.10;;;;;;;12.82;27.85;94286.09;5025924;28;20038;-81
2024/02/06 00:24:37;;;;;;;7.45;2.40;;;;;;;12.84;27.84;94281.19;5025894;28;20038;-81
2024/02/06 00:27:03;;;;;;;8.05;2.03;;;;;;;12.85;27.75;94291.59;5025995;28;20056;-80
2024/02/06 00:29:29;;;;;;;5.55;1.90;;;;;;;12.82;28.21;94294.91;5026009;28;20259;-79
2024/02/06 00:31:54;;;;;;;6.40;2.25;;;;;;;12.81;27.92;94289.88;5025542;28;20025;-80
2024/02/06 00:34:20;;;;;;;5.93;2.00;;;;;;;12.85;27.49;94272.09;5025406;28;20228;-80
2024/02/06 00:36:45;;;;;;;7.45;2.15;;;;;;;12.85;27.20;94277.44;5025588;28;20263;-80
2024/02/06 00:39:11;;;;;;;7.88;2.88;;;;;;;12.88;27.16;94311.56;5025492;28;20029;-80
2024/02/06 00:41:39;;;;;;;7.05;2.00;;;;;;;12.91;27.24;94291.44;5025414;28;20038;-80
2024/02/06 00:44:05;;;;;;;5.95;2.58;;;;;;;12.86;26.80;94268.31;5025394;28;20025;-80
2024/02/06 00:46:30;;;;;;;4.85;1.70;;;;;;;12.89;26.56;94278.38;5025761;28;20028;-80
2024/02/06 00:48:55;;;;;;;5.65;1.88;;;;;;;12.99;26.49;94287.97;5025672;28;20249;-81
2024/02/06 00:51:21;;;;;;;5.93;2.08;;;;;;;13.00;26.65;94298.34;5023854;28;20101;-81
2024/02/06 00:53:46;;;;;;;8.02;2.67;;;;;;;12.98;29.13;94273.78;5025368;28;20212;-81
2024/02/06 00:56:11;;;;;;;9.20;3.40;;;;;;;12.68;32.36;94277.44;5025676;28;20036;-81
2024/02/06 00:58:37;;;;;;;6.90;2.85;;;;;;;12.35;32.88;94280.59;5025300;28;20100;-81
2024/02/06 01:01:03;;;;;;;8.60;4.03;;;;;;;12.01;33.79;94279.47;5025283;28;20014;-81
2024/02/06 01:03:28;;;;;;;10.57;4.32;;;;;;;11.75;34.32;94279.34;5023790;28;20017;-81
2024/02/06 01:05:54;;;;;;;8.77;3.30;;;;;;;11.51;34.69;94285.06;5025715;28;20065;-81
2024/02/06 01:08:19;;;;;;;8.13;3.38;;;;;;;11.27;35.71;94307.56;5025963;28;20028;-81
2024/02/06 01:10:45;;;;;;;8.43;3.33;;;;;;;11.07;36.39;94305.41;5024818;28;20048;-81
2024/02/06 01:13:10;;;;;;;8.98;3.40;;;;;;;10.79;33.91;94295.66;5025098;28;20312;-81
2024/02/06 01:15:36;;;;;;;7.85;3.15;;;;;;;10.78;36.56;94296.75;5024697;28;20044;-81
2024/02/06 01:18:01;;;;;;;8.57;3.63;;;;;;;10.64;36.67;94291.50;5024704;28;20022;-81
2024/02/06 01:20:27;;;;;;;9.25;3.58;;;;;;;10.60;36.37;94287.03;5025139;28;20026;-81
2024/02/06 01:22:52;;;;;;;8.93;3.47;;;;;;;10.42;36.63;94286.13;5023861;28;20052;-81
2024/02/06 01:25:17;;;;;;;9.93;3.55;;;;;;;10.21;37.96;94277.75;5024806;28;20014;-81
2024/02/06 01:27:43;;;;;;;10.02;3.60;;;;;;;10.17;38.65;94272.25;5023919;28;20013;-81
2024/02/06 01:30:09;;;;;;;15.02;3.35;;;;;;;10.22;38.77;94277.47;5024700;28;20124;-81
2024/02/06 01:32:34;;;;;;;6.97;3.40;;;;;;;10.14;38.89;94304.03;5027991;28;20017;-81
2024/02/06 01:35:00;;;;;;;10.02;3.70;;;;;;;9.98;39.39;94284.91;5024953;28;20096;-81
2024/02/06 01:37:25;;;;;;;9.60;3.45;;;;;;;9.88;39.85;94291.25;5025129;28;20025;-81
2024/02/06 01:39:51;;;;;;;8.65;3.45;;;;;;;9.75;39.80;94292.84;5024709;28;20033;-81
2024/02/06 01:42:16;;;;;;;8.10;3.72;;;;;;;9.72;40.21;94290.75;5024557;28;20021;-81
2024/02/06 01:44:42;;;;;;;11.43;3.90;;;;;;;9.69;40.23;94296.69;5024462;28;20018;-81
2024/02/06 01:47:08;;;;;;;7.78;3.80;;;;;;;9.68;40.00;94311.06;5024162;28;20022;-81
2024/02/06 01:49:35;;;;;;;13.88;3.97;;;;;;;9.58;40.20;94312.03;5023735;28;20056;-81
2024/02/06 01:52:01;;;;;;;7.55;3.35;;;;;;;9.44;40.36;94304.06;5024508;28;20395;-81
2024/02/06 01:54:27;;;;;;;10.30;3.70;;;;;;;9.50;40.57;94303.97;5024639;28;20026;-81
2024/02/06 01:56:54;;;;;;;9.18;4.28;;;;;;;9.50;40.43;94317.25;5024878;28;20017;-81
2024/02/06 01:59:21;;;;;;;8.80;3.65;;;;;;;9.35;40.63;94311.13;5024745;28;20037;-81
2024/02/06 02:01:47;;;;;;;7.60;3.08;;;;;;;9.37;40.69;94311.63;5023988;28;20092;-81
2024/02/06 02:04:14;;;;;;;11.27;3.58;;;;;;;9.35;41.00;94313.81;5024810;28;20017;-81
2024/02/06 02:06:40;;;;;;;10.65;4.15;;;;;;;9.27;41.30;94309.16;5024571;28;20018;-81
2024/02/06 02:09:05;;;;;;;12.13;3.70;;;;;;;9.31;41.17;94314.69;5024395;28;20379;-81
2024/02/06 02:11:31;;;;;;;9.85;3.97;;;;;;;9.12;41.28;94302.25;5024385;28;20041;-81
2024/02/06 02:13:56;;;;;;;9.07;3.38;;;;;;;9.17;41.46;94299.47;5023868;28;20068;-81
2024/02/06 02:16:23;;;;;;;12.20;3.65;;;;;;;9.22;41.50;94287.97;5024144;28;20084;-81
2024/02/06 02:18:48;;;;;;;9.25;3.20;;;;;;;9.14;41.60;94289.44;5024012;28;20017;-81
2024/02/06 02:21:17;;;;;;;10.13;4.15;;;;;;;9.10;41.52;94282.31;5023318;28;20021;-81
2024/02/06 02:23:44;;;;;;;8.38;3.42;;;;;;;9.14;40.84;94278.81;5023923;28;20017;-81
2024/02/06 02:26:11;;;;;;;7.35;3.20;;;;;;;9.19;40.78;94277.91;5023550;28;20014;-81
2024/02/06 02:28:38;;;;;;;6.32;3.33;;;;;;;8.92;40.76;94268.81;5023909;28;20324;-81
2024/02/06 02:31:08;;;;;;;9.35;3.00;;;;;;;9.01;39.99;94275.03;5023853;28;20091;-81
2024/02/06 02:33:34;;;;;;;5.93;2.53;;;;;;;9.13;40.05;94281.75;5022449;28;20244;-81
2024/02/06 02:36:04;;;;;;;9.00;3.45;;;;;;;9.17;40.41;94280.09;5023343;28;20022;-81
2024/02/06 02:38:29;;;;;;;7.75;3.30;;;;;;;9.18;39.69;94293.09;5023544;28;20093;-81
2024/02/06 02:40:54;;;;;;;9.48;3.45;;;;;;;9.24;39.37;94283.94;5023659;28;20022;-81
2024/02/06 02:43:20;;;;;;;14.57;3.00;;;;;;;9.27;39.63;94274.59;5023494;28;20021;-81
2024/02/06 02:45:45;;;;;;;7.72;2.80;;;;;;;9.30;38.73;94284.66;5023244;28;20104;-81
2024/02/06 02:48:11;;;;;;;5.22;2.63;;;;;;;9.41;38.30;94290.56;5023532;28;20018;-81
2024/02/06 02:50:36;;;;;;;12.32;3.00;;;;;;;9.34;37.74;94287.47;5023671;28;20034;-81
2024/02/06 02:53:02;;;;;;;7.05;3.00;;;;;;;9.35;38.29;94289.84;5023518;28;20102;-81
2024/02/06 02:55:27;;;;;;;8.75;2.92;;;;;;;9.41;38.29;94298.53;5023850;28;20052;-81
2024/02/06 02:57:53;;;;;;;10.20;3.10;;;;;;;9.40;38.03;94295.09;5024444;28;20026;-81
2024/02/06 03:00:20;;;;;;;10.50;2.97;;;;;;;9.35;37.99;94300.50;5024316;28;20034;-81
2024/02/06 03:02:45;;;;;;;9.27;2.60;;;;;;;9.39;38.16;94306.81;5023247;28;20336;-81
2024/02/06 03:05:11;;;;;;;6.72;2.78;;;;;;;9.42;38.20;94306.22;5023447;28;20029;-81
2024/02/06 03:07:36;;;;;;;8.15;3.00;;;;;;;9.44;38.60;94312.06;5023786;28;20125;-81
2024/02/06 03:10:02;;;;;;;10.85;3.85;;;;;;;9.43;39.06;94320.31;5023427;28;20078;-81
2024/02/06 03:12:31;;;;;;;9.93;3.50;;;;;;;9.38;39.67;94323.06;5024060;28;20025;-81
2024/02/06 03:14:59;;;;;;;11.25;3.85;;;;;;;9.36;40.07;94330.53;5023331;28;20088;-81
2024/02/06 03:17:25;;;;;;;11.75;3.67;;;;;;;9.31;40.59;94331.44;5023606;28;20018;-81
2024/02/06 03:19:51;;;;;;;11.63;4.28;;;;;;;9.24;41.29;94331.03;5023440;28;20022;-81
2024/02/06 03:22:16;;;;;;;9.15;4.35;;;;;;;9.19;41.75;94323.91;5023035;28;20059;-81
2024/02/06 03:24:44;;;;;;;8.77;3.67;;;;;;;9.16;42.00;94334.34;5024341;28;20044;-80
2024/02/06 03:27:09;;;;;;;8.43;3.30;;;;;;;9.00;42.38;94334.59;5022999;28;20022;-81
2024/02/06 03:29:35;;;;;;;12.77;4.30;;;;;;;8.99;42.29;94340.22;5023928;28;20372;-81
2024/02/06 03:32:00;;;;;;;7.22;3.45;;;;;;;8.94;42.61;94335.78;5024307;28;20034;-81
2024/02/06 03:34:26;;;;;;;9.75;4.15;;;;;;;8.88;42.77;94342.25;5026877;28;20030;-81
2024/02/06 03:36:51;;;;;;;9.02;3.97;;;;;;;8.84;42.77;94344.69;5026904;28;20068;-80
2024/02/06 03:39:17;;;;;;;9.63;3.78;;;;;;;8.80;43.09;94353.53;5026587;28;20231;-81
2024/02/06 03:41:43;;;;;;;5.97;3.45;;;;;;;8.70;43.21;94332.44;5026756;28;20026;-81
2024/02/06 03:44:08;;;;;;;9.88;3.90;;;;;;;8.67;43.87;94344.44;5026718;28;20025;-81
2024/02/06 03:46:34;;;;;;;7.45;4.03;;;;;;;8.56;44.11;94337.69;5026464;28;20347;-81
2024/02/06 03:49:00;;;;;;;13.45;4.57;;;;;;;8.52;44.13;94331.38;5025217;28;20101;-80
2024/02/06 03:51:25;;;;;;;13.10;4.68;;;;;;;8.49;44.51;94335.41;5026355;28;20033;-81
2024/02/06 03:53:50;;;;;;;15.00;4.85;;;;;;;8.47;44.63;94348.19;5026555;28;20266;-81
2024/02/06 03:56:16;;;;;;;19.98;5.47;;;;;;;8.36;44.98;94334.19;5026912;28;20072;-81
2024/02/06 03:58:42;;;;;;;14.32;5.10;;;;;;;8.30;44.85;94342.53;5026419;28;20545;-81
2024/02/06 04:01:07;;;;;;;13.48;4.55;;;;;;;8.31;45.19;94342.25;5026545;28;20026;-81
2024/02/06 04:03:32;;;;;;;11.57;4.65;;;;;;;8.28;45.14;94334.84;5026617;28;20041;-81
2024/02/06 04:05:58;;;;;;;13.40;4.97;;;;;;;8.21;45.15;94337.06;5025999;28;20025;-81
2024/02/06 04:08:23;;;;;;;13.43;4.47;;;;;;;8.26;44.90;94338.88;5026323;28;20088;-81
2024/02/06 04:10:49;;;;;;;10.32;4.30;;;;;;;8.24;45.34;94337.28;5026326;28;20033;-81
2024/02/06 04:13:14;;;;;;;9.55;4.28;;;;;;;8.24;45.13;94342.59;5026246;28;20025;-81
2024/02/06 04:15:40;;;;;;;12.32;4.25;;;;;;;8.26;45.02;94338.88;5026009;28;20347;-81
2024/02/06 04:18:05;;;;;;;11.60;4.20;;;;;;;8.23;44.96;94334.91;5025896;28;20049;-80
2024/02/06 04:20:34;;;;;;;12.60;6.53;;;;;;;8.24;44.98;94344.44;5026026;28;20030;-81
2024/02/06 04:23:00;;;;;;;11.20;4.43;;;;;;;8.12;44.64;94328.97;5025816;28;20312;-80
2024/02/06 04:25:27;;;;;;;12.05;4.30;;;;;;;8.14;44.80;94329.47;5025985;28;20081;-81
2024/02/06 04:27:52;;;;;;;15.30;4.38;;;;;;;8.11;45.29;94342.50;5026029;28;20026;-81
2024/02/06 04:30:18;;;;;;;13.57;4.82;;;;;;;8.07;45.23;94336.97;5025949;28;20048;-80
2024/02/06 04:32:43;;;;;;;14.82;5.80;;;;;;;8.02;45.25;94339.72;5025864;28;20022;-81
2024/02/06 04:35:08;;;;;;;16.27;5.63;;;;;;;7.97;45.38;94347.72;5025535;28;20228;-80
2024/02/06 04:37:34;;;;;;;10.20;4.70;;;;;;;7.93;45.50;94350.16;5025502;28;20025;-81
2024/02/06 04:39:59;;;;;;;12.13;5.18;;;;;;;7.87;45.74;94345.19;5025779;28;20025;-81
2024/02/06 04:42:25;;;;;;;12.82;4.85;;;;;;;7.80;45.83;94348.19;5025735;28;20060;-80
2024/02/06 04:44:50;;;;;;;14.88;5.80;;;;;;;7.78;45.89;94345.81;5025226;28;20018;-81
2024/02/06 04:47:16;;;;;;;15.13;4.70;;;;;;;7.76;46.19;94345.31;5025938;28;20033;-81
2024/02/06 04:49:41;;;;;;;14.52;5.30;;;;;;;7.71;46.24;94349.88;5025906;28;20108;-81
2024/02/06 04:52:07;;;;;;;11.20;4.32;;;;;;;7.69;46.33;94344.84;5025762;28;20050;-81
2024/02/06 04:54:32;;;;;;;12.32;5.05;;;;;;;7.72;46.40;94352.25;5025282;28;20026;-81
2024/02/06 04:56:58;;;;;;;12.45;4.70;;;;;;;7.68;46.19;94351.25;5025447;28;20030;-80
2024/02/06 04:59:23;;;;;;;16.98;6.90;;;;;;;7.68;46.57;94345.94;5025568;28;20032;-80
2024/02/06 05:01:49;;;;;;;18.00;6.28;;;;;;;7.68;46.81;94351.25;5025584;28;20028;-81
2024/02/06 05:04:14;;;;;;;16.30;5.38;;;;;;;7.64;46.76;94360.84;5025216;28;20320;-80
2024/02/06 05:06:40;;;;;;;15.55;5.13;;;;;;;7.62;46.79;94355.81;5025273;28;20048;-80
2024/02/06 05:09:06;;;;;;;16.63;6.53;;;;;;;7.60;46.99;94351.88;5024913;28;20072;-81
2024/02/06 05:11:31;;;;;;;13.43;4.68;;;;;;;7.58;46.94;94354.00;5024982;28;20026;-80
2024/02/06 05:13:56;;;;;;;13.73;5.05;;;;;;;7.49;47.27;94353.84;5025315;28;20036;-81
2024/02/06 05:16:22;;;;;;;14.68;4.85;;;;;;;7.42;47.57;94358.66;5024763;28;20266;-80
2024/02/06 05:18:48;;;;;;;17.17;5.53;;;;;;;7.40;47.75;94358.16;5023583;28;20026;-80
2024/02/06 05:21:14;;;;;;;13.85;6.45;;;;;;;7.28;47.93;94363.06;5024903;28;20045;-80
2024/02/06 05:23:39;;;;;;;12.70;5.47;;;;;;;7.22;48.05;94355.16;5024674;28;20222;-81
2024/02/06 05:26:04;;;;;;;18.35;5.88;;;;;;;7.20;47.97;94369.75;5024947;28;20049;-81
2024/02/06 05:28:30;;;;;;;18.85;6.20;;;;;;;7.17;48.19;94351.75;5025024;28;20332;-81
2024/02/06 05:30:56;;;;;;;18.15;7.05;;;;;;;7.20;48.09;94369.75;5024847;28;20243;-80
2024/02/06 05:33:22;;;;;;;21.63;7.32;;;;;;;7.18;48.02;94359.41;5023771;28;20033;-80
2024/02/06 05:35:48;;;;;;;14.65;6.60;;;;;;;7.16;47.82;94361.56;5024613;28;20022;-80
2024/02/06 05:38:14;;;;;;;15.02;6.53;;;;;;;7.17;47.64;94372.97;5024834;28;20021;-80
2024/02/06 05:40:39;;;;;;;30.58;9.02;;;;;;;7.18;48.11;94369.22;5024880;28;20085;-80
2024/02/06 05:43:05;;;;;;;17.73;6.35;;;;;;;7.19;47.61;94370.81;5024461;28;20029;-81
2024/02/06 05:45:30;;;;;;;19.95;6.95;;;;;;;7.21;47.72;94355.44;5023464;28;20240;-80
2024/02/06 05:47:58;;;;;;;20.48;6.82;;;;;;;7.28;47.57;94371.00;5024542;28;20316;-80
2024/02/06 05:50:24;;;;;;;40.80;8.30;;;;;;;7.26;47.63;94354.59;5024622;28;20022;-81
2024/02/06 05:52:50;;;;;;;24.58;8.13;;;;;;;7.30;47.89;94356.38;5024369;28;20116;-81
2024/02/06 05:55:15;;;;;;;24.40;7.07;;;;;;;7.22;48.04;94360.47;5023799;28;20227;-80
2024/02/06 05:57:40;;;;;;;32.35;6.65;;;;;;;7.24;47.86;94362.81;5023550;28;20150;-80
2024/02/06 06:00:07;;;;;;;31.38;8.20;;;;;;;7.21;48.06;94360.72;5024418;28;20350;-80
2024/02/06 06:02:33;;;;;;;27.00;6.72;;;;;;;7.23;47.67;94358.59;5023970;28;20021;-81
2024/02/06 06:04:58;;;;;;;21.88;7.15;;;;;;;7.28;47.63;94369.13;5023200;28;20014;-80
2024/02/06 06:07:23;;;;;;;25.33;8.20;;;;;;;7.30;47.80;94369.66;5023943;28;20026;-81
2024/02/06 06:09:49;;;;;;;17.00;6.60;;;;;;;7.25;47.78;94366.28;5024009;28;20070;-80
2024/02/06 06:12:14;;;;;;;15.85;7.28;;;;;;;7.27;47.67;94382.69;5023759;28;20022;-80
2024/02/06 06:14:40;;;;;;;28.75;7.18;;;;;;;7.33;47.66;94374.41;5022451;28;20022;-80
2024/02/06 06:17:05;;;;;;;28.73;7.50;;;;;;;7.37;47.72;94367.47;5024119;28;20033;-80
2024/02/06 06:19:31;;;;;;;27.95;7.32;;;;;;;7.39;47.43;94370.63;5022845;28;20120;-80
2024/02/06 06:21:56;;;;;;;15.02;5.57;;;;;;;7.49;47.07;94368.94;5023917;28;20189;-80
2024/02/06 06:24:22;;;;;;;26.33;6.63;;;;;;;7.54;47.01;94375.00;5023776;28;20029;-80
2024/02/06 06:26:47;;;;;;;28.90;6.30;;;;;;;7.58;46.72;94377.88;5023867;28;20060;-81
2024/02/06 06:29:13;;;;;;;24.75;7.22;;;;;;;7.69;46.14;94384.66;5023992;28;20039;-81
2024/02/06 06:31:38;;;;;;;22.60;6.85;;;;;;;7.71;46.43;94381.72;5023432;28;20256;-80
2024/02/06 06:34:06;;;;;;;24.58;8.15;;;;;;;7.73;47.02;94387.53;5024115;28;20224;-80
2024/02/06 06:36:32;;;;;;;26.63;8.90;;;;;;;7.71;46.45;94385.16;5023828;28;20032;-80
2024/02/06 06:38:58;;;;;;;52.55;12.38;;;;;;;7.84;46.23;94386.38;5023479;28;20025;-80
2024/02/06 06:41:25;;;;;;;38.03;9.40;;;;;;;7.89;46.09;94386.28;5023350;28;20041;-81
2024/02/06 06:43:52;;;;;;;32.78;10.20;;;;;;;7.96;45.84;94383.31;5023646;28;20206;-80
2024/02/06 06:46:17;;;;;;;50.63;9.75;;;;;;;8.07;45.12;94390.06;5023681;28;20198;-80
2024/02/06 06:48:43;;;;;;;40.85;9.30;;;;;;;8.08;45.28;94374.94;5022125;28;20033;-80
2024/02/06 06:51:16;;;;;;;29.90;7.38;;;;;;;8.15;44.86;94375.38;5023061;28;20030;-80
2024/02/06 06:53:41;;;;;;;16.80;6.50;;;;;;;8.29;44.77;94386.09;5023743;28;20344;-81
2024/02/06 06:56:18;;;;;;;19.60;6.43;;;;;;;8.36;44.16;94375.91;5022914;28;20030;-81
2024/02/06 06:58:44;;;;;;;21.20;7.13;;;;;;;8.48;43.86;94368.34;5021872;28;20022;-81
2024/02/06 07:01:09;;;;;;;27.65;10.10;;;;;;;8.57;43.92;94363.97;5022954;28;20060;-80
2024/02/06 07:03:35;;;;;;;32.75;12.52;;;;;;;8.67;43.66;94364.88;5023211;28;20022;-80
2024/02/06 07:06:01;;;;;;;31.77;12.95;;;;;;;8.78;43.52;94369.78;5023226;28;20022;-80
2024/02/06 07:08:26;;;;;;;20.05;9.30;;;;;;;8.86;43.41;94368.34;5022942;28;20208;-80
2024/02/06 07:10:52;;;;;;;15.75;5.90;;;;;;;8.94;43.62;94359.69;5022596;28;20227;-80
2024/02/06 07:13:17;;;;;;;21.27;6.30;;;;;;;9.02;43.40;94371.56;5023407;28;20034;-81
2024/02/06 07:15:43;;;;;;;30.10;6.20;;;;;;;9.13;43.36;94369.50;5022236;28;20026;-80
2024/02/06 07:18:08;;;;;;;21.13;6.90;;;;;;;9.20;43.10;94372.59;5023291;28;20026;-81
2024/02/06 07:20:33;;;;;;;11.70;5.88;;;;;;;9.29;42.77;94365.50;5023147;28;20089;-81
2024/02/06 07:22:59;;;;;;;17.20;4.78;;;;;;;9.41;42.61;94367.72;5022789;28;20030;-81
2024/02/06 07:25:24;;;;;;;15.98;4.57;;;;;;;9.46;42.32;94369.50;5022693;28;20089;-80
2024/02/06 07:27:50;;;;;;;25.10;6.45;;;;;;;9.55;42.09;94362.41;5022069;28;20229;-81
2024/02/06 07:30:15;;;;;;;21.02;5.18;;;;;;;9.60;41.92;94359.66;5021564;28;20169;-80
2024/02/06 07:32:41;;;;;;;17.27;4.47;;;;;;;9.69;41.41;94373.88;5022047;28;20041;-81
2024/02/06 07:35:07;;;;;;;13.45;4.55;;;;;;;9.77;41.31;94367.88;5022692;28;20038;-81
2024/02/06 07:37:32;;;;;;;15.45;4.43;;;;;;;9.84;41.02;94372.78;5021823;28;20030;-80
2024/02/06 07:39:57;;;;;;;14.80;4.80;;;;;;;9.91;40.98;94367.88;5023129;28;20034;-81
2024/02/06 07:42:23;;;;;;;16.50;4.93;;;;;;;9.94;40.64;94364.59;5023004;28;20089;-80
2024/02/06 07:44:48;;;;;;;13.63;4.47;;;;;;;10.04;40.59;94371.63;5022772;28;20025;-81
2024/02/06 07:47:14;;;;;;;16.58;4.70;;;;;;;10.11;40.42;94373.88;5023153;28;20277;-80
2024/02/06 07:49:39;;;;;;;10.82;4.20;;;;;;;10.17;40.01;94367.34;5023257;28;20316;-80
2024/02/06 07:52:05;;;;;;;19.80;4.97;;;;;;;10.23;39.98;94366.16;5023208;28;20049;-81
2024/02/06 07:54:31;;;;;;;15.20;4.53;;;;;;;10.29;39.74;94366.84;5022883;28;20026;-81
2024/02/06 07:56:56;;;;;;;19.55;4.40;;;;;;;10.36;39.71;94362.72;5022929;28;20022;-80
2024/02/06 07:59:21;;;;;;;18.10;4.70;;;;;;;10.44;39.72;94356.69;5023181;28;20026;-80
2024/02/06 08:01:47;;;;;;;12.75;4.10;;;;;;;10.51;39.39;94352.84;5022856;28;20022;-80
2024/02/06 08:04:13;;;;;;;13.18;4.65;;;;;;;10.57;39.31;94355.09;5022948;28;20033;-80
2024/02/06 08:06:38;;;;;;;13.18;3.90;;;;;;;10.66;38.83;94359.69;5022865;28;20025;-80
2024/02/06 08:09:05;;;;;;;14.35;3.88;;;;;;;10.71;38.71;94357.72;5023847;28;20085;-81
2024/02/06 08:11:31;;;;;;;13.23;3.95;;;;;;;10.80;38.33;94363.09;5024082;28;20044;-80
2024/02/06 08:13:58;;;;;;;11.45;3.50;;;;;;;10.89;38.13;94350.66;5023259;28;20022;-79
2024/02/06 08:16:25;;;;;;;9.00;4.00;;;;;;;10.98;38.04;94350.69;5023557;28;20021;-81
2024/02/06 08:18:50;;;;;;;14.40;5.15;;;;;;;11.05;37.73;94348.38;5023372;28;20018;-81
2024/02/06 08:21:16;;;;;;;18.42;5.07;;;;;;;11.13;37.68;94352.19;5027081;28;20029;-81
2024/02/06 08:23:41;;;;;;;13.10;4.78;;;;;;;11.21;37.46;94354.94;5026641;28;20082;-81
2024/02/06 08:26:07;;;;;;;11.65;4.57;;;;;;;11.24;37.11;94353.53;5026870;28;20020;-81
2024/02/06 08:28:33;;;;;;;15.07;3.83;;;;;;;11.26;37.17;94348.69;5027009;28;20093;-81
2024/02/06 08:30:58;;;;;;;16.92;4.75;;;;;;;11.39;36.76;94345.13;5026526;28;20017;-81
2024/02/06 08:33:24;;;;;;;12.75;4.45;;;;;;;11.47;36.47;94356.19;5027012;28;20022;-81
2024/02/06 08:35:52;;;;;;;18.08;4.70;;;;;;;11.55;36.37;94345.53;5026445;28;20029;-78
2024/02/06 08:38:18;;;;;;;16.60;4.45;;;;;;;11.57;36.36;94347.91;5026533;28;20030;-79
2024/02/06 08:40:44;;;;;;;21.40;4.93;;;;;;;11.63;36.11;94350.13;5026285;28;20097;-81
2024/02/06 08:43:09;;;;;;;16.42;5.05;;;;;;;11.66;36.16;94354.06;5026081;28;20037;-80
2024/02/06 08:45:35;;;;;;;8.40;3.60;;;;;;;11.78;36.04;94348.94;5025143;28;20054;-81
2024/02/06 08:48:01;;;;;;;22.52;5.22;;;;;;;11.87;36.05;94354.34;5026442;28;20029;-79
2024/02/06 08:50:33;;;;;;;14.43;3.88;;;;;;;11.96;35.89;94354.38;5026721;28;20075;-81
2024/02/06 08:52:59;;;;;;;13.38;4.07;;;;;;;12.06;35.74;94356.78;5026718;28;20044;-81
2024/02/06 08:55:24;;;;;;;20.48;5.30;;;;;;;12.12;35.41;94350.19;5026733;28;20320;-81
2024/02/06 08:57:53;;;;;;;26.80;5.00;;;;;;;12.19;35.23;94355.06;5026837;28;20025;-81
2024/02/06 09:00:18;;;;;;;8.77;3.97;;;;;;;12.26;35.06;94350.06;5026312;28;20053;-81
2024/02/06 09:02:44;;;;;;;12.20;3.97;;;;;;;12.36;34.67;94349.00;5026292;28;20317;-81
2024/02/06 09:05:09;;;;;;;9.27;3.70;;;;;;;12.44;34.38;94343.66;5025740;28;20025;-81
2024/02/06 09:07:35;;;;;;;15.35;5.00;;;;;;;12.53;34.73;94345.56;5026087;28;20101;-81
2024/02/06 09:10:03;;;;;;;18.67;3.83;;;;;;;12.61;34.42;94348.22;5026532;28;20022;-81
2024/02/06 09:12:31;;;;;;;11.80;4.70;;;;;;;12.68;34.35;94346.97;5026273;28;20025;-81
2024/02/06 09:15:00;;;;;;;11.20;4.95;;;;;;;12.75;34.11;94341.97;5025621;28;20045;-81
2024/02/06 09:17:26;;;;;;;16.80;4.15;;;;;;;12.78;34.18;94346.66;5025591;28;20088;-81
2024/02/06 09:19:52;;;;;;;24.10;5.57;;;;;;;12.85;34.09;94345.09;5025503;28;20064;-81
2024/02/06 09:22:17;;;;;;;17.00;5.45;;;;;;;12.94;34.22;94342.41;5026855;28;20358;-81
2024/02/06 09:24:42;;;;;;;10.38;4.28;;;;;;;12.99;34.42;94352.97;5025296;28;20339;-81
2024/02/06 09:27:08;;;;;;;12.10;4.60;;;;;;;13.03;34.11;94337.84;5024788;28;20021;-81
2024/02/06 09:29:34;;;;;;;22.52;5.85;;;;;;;13.12;34.01;94339.75;5024994;28;20053;-81
2024/02/06 09:32:00;;;;;;;15.20;5.57;;;;;;;13.22;34.16;94334.06;5024716;28;20018;-81
2024/02/06 09:34:25;;;;;;;17.65;4.00;;;;;;;13.30;34.27;94322.56;5024783;28;20033;-81
2024/02/06 09:36:51;;;;;;;16.73;5.72;;;;;;;13.37;34.11;94325.56;5025015;28;20070;-81
2024/02/06 09:39:16;;;;;;;15.70;5.25;;;;;;;13.45;33.54;94318.59;5024923;28;20370;-81
2024/02/06 09:41:44;;;;;;;17.30;4.25;;;;;;;13.52;33.50;94321.56;5025035;28;20247;-81
2024/02/06 09:44:11;;;;;;;16.63;4.68;;;;;;;13.58;33.04;94314.16;5024744;28;20022;-81
2024/02/06 09:46:36;;;;;;;16.23;5.55;;;;;;;13.65;33.16;94314.44;5024565;28;20030;-81
2024/02/06 09:49:02;;;;;;;11.98;4.47;;;;;;;13.75;33.55;94313.31;5023666;28;20109;-81
2024/02/06 09:51:32;;;;;;;15.27;4.30;;;;;;;13.82;33.28;94306.34;5024178;28;20038;-81
2024/02/06 09:53:59;;;;;;;14.40;4.60;;;;;;;13.87;32.84;94305.38;5024205;28;20080;-81
2024/02/06 09:56:29;;;;;;;14.43;4.50;;;;;;;13.96;32.31;94302.63;5024306;28;20051;-81
2024/02/06 09:58:57;;;;;;;17.48;4.32;;;;;;;14.03;32.40;94302.94;5024264;28;20025;-81
2024/02/06 10:01:24;;;;;;;13.93;5.07;;;;;;;14.08;32.05;94286.66;5024548;28;20244;-81
2024/02/06 10:03:52;;;;;;;13.32;5.40;;;;;;;14.17;32.58;94286.63;5024284;28;20022;-81
2024/02/06 10:06:23;;;;;;;16.17;6.68;;;;;;;14.25;32.43;94275.84;5024499;28;20277;-81
2024/02/06 10:08:49;;;;;;;15.32;5.45;;;;;;;14.32;32.70;94272.63;5022889;28;20217;-78
2024/02/06 10:11:17;;;;;;;17.48;5.45;;;;;;;14.39;31.78;94261.38;5024513;28;20040;-81
2024/02/06 10:13:43;;;;;;;17.02;4.80;;;;;;;14.45;31.91;94246.69;5024276;28;20041;-81
2024/02/06 10:16:08;;;;;;;21.65;5.13;;;;;;;14.52;32.10;94244.25;5023883;28;20378;-81
2024/02/06 10:18:34;;;;;;;34.38;5.82;;;;;;;14.62;31.82;94248.47;5023793;28;20026;-79
2024/02/06 10:20:59;;;;;;;20.27;5.45;;;;;;;14.72;31.24;94236.53;5024094;28;20096;-79
2024/02/06 10:23:25;;;;;;;15.05;5.00;;;;;;;14.76;31.03;94232.09;5024063;28;20057;-81
2024/02/06 10:25:50;;;;;;;30.98;5.55;;;;;;;14.82;31.44;94228.84;5024228;28;20097;-81
2024/02/06 10:28:23;;;;;;;17.17;5.40;;;;;;;14.90;31.36;94227.22;5024332;28;20034;-81
2024/02/06 10:30:49;;;;;;;19.90;5.47;;;;;;;14.94;31.39;94214.69;5023877;28;20144;-82
2024/02/06 10:33:15;;;;;;;20.15;4.90;;;;;;;15.01;30.65;94220.28;5023890;28;20022;-81
2024/02/06 10:35:42;;;;;;;14.90;5.05;;;;;;;15.10;30.24;94211.38;5023506;28;20026;-81
2024/02/06 10:38:15;;;;;;;22.42;6.93;;;;;;;15.11;29.77;94210.25;5023645;28;20132;-81
2024/02/06 10:40:45;;;;;;;19.58;6.18;;;;;;;15.16;30.26;94218.91;5023713;28;20029;-81
2024/02/06 10:43:11;;;;;;;28.60;6.13;;;;;;;14.99;29.82;94203.75;5023143;28;20021;-81
2024/02/06 10:45:37;;;;;;;17.10;5.05;;;;;;;14.93;30.19;94199.69;5023772;28;20076;-80
2024/02/06 10:48:04;;;;;;;20.75;5.85;;;;;;;15.08;30.33;94197.50;5023645;28;20022;-80
2024/02/06 10:50:30;;;;;;;21.90;6.13;;;;;;;15.22;30.51;94187.22;5023439;28;20201;-80
2024/02/06 10:52:56;;;;;;;22.65;6.40;;;;;;;15.35;30.08;94178.06;5023463;28;20060;-81
2024/02/06 10:55:22;;;;;;;27.67;7.13;;;;;;;15.46;30.10;94175.72;5023519;28;20033;-80
2024/02/06 10:57:53;;;;;;;13.82;5.97;;;;;;;15.56;30.08;94177.19;5023609;28;20025;-80
2024/02/06 11:00:21;;;;;;;34.65;7.47;;;;;;;15.69;29.72;94162.59;5023414;28;20025;-81
2024/02/06 11:02:57;;;;;;;33.20;6.30;;;;;;;15.80;30.03;94155.69;5023811;28;20022;-80
2024/02/06 11:05:33;;;;;;;20.17;6.70;;;;;;;15.88;29.46;94145.16;5023398;28;20028;-80
2024/02/06 11:08:05;;;;;;;18.45;6.57;;;;;;;15.94;29.78;94144.59;5023275;28;20064;-80
2024/02/06 11:10:36;;;;;;;;;;;;;;;16.03;29.32;94147.13;5024080;28;20099;-80
2024/02/06 11:13:11;;;;;;;25.95;7.53;;;;;;;16.09;29.26;94140.38;5023508;28;20104;-81
2024/02/06 11:15:39;;;;;;;31.73;9.98;;;;;;;16.15;28.74;94133.66;5023386;28;20231;-80
2024/02/06 11:18:12;;;;;;;14.85;7.65;;;;;;;16.25;28.92;94140.47;5023220;28;20045;-81
2024/02/06 11:20:40;;;;;;;24.73;7.68;;;;;;;16.31;28.24;94138.31;5023516;28;20279;-81
2024/02/06 11:23:07;;;;;;;27.05;8.45;;;;;;;16.33;28.00;94122.63;5023480;28;20306;-80
2024/02/06 11:25:34;;;;;;;20.83;8.18;;;;;;;16.40;28.59;94125.50;5023300;28;20024;-81